createdAt,value
2018-07-22T00:00:39.491Z,20.20
2018-07-22T00:02:42.640Z,20.20
2018-07-22T00:04:45.786Z,20.20
2018-07-22T00:06:48.920Z,20.10
2018-07-22T00:08:52.091Z,20.10
2018-07-22T00:10:55.236Z,20.10
2018-07-22T00:12:59.252Z,20.10
2018-07-22T00:15:02.368Z,20.00
2018-07-22T00:17:05.507Z,20.00
2018-07-22T00:19:08.672Z,20.00
2018-07-22T00:21:11.840Z,20.00
2018-07-22T00:23:15.010Z,19.90
2018-07-22T00:25:18.235Z,19.90
2018-07-22T00:27:21.391Z,19.90
2018-07-22T00:29:24.560Z,19.90
2018-07-22T00:31:27.715Z,19.90
2018-07-22T00:33:30.884Z,19.90
2018-07-22T00:35:34.022Z,19.80
2018-07-22T00:37:37.448Z,19.80
2018-07-22T00:39:40.586Z,19.80
2018-07-22T00:41:43.742Z,19.70
2018-07-22T00:43:46.884Z,19.70
2018-07-22T00:45:50.028Z,19.60
2018-07-22T00:47:53.181Z,19.60
2018-07-22T00:49:56.895Z,19.60
2018-07-22T00:52:00.060Z,19.60
2018-07-22T00:54:04.244Z,19.60
2018-07-22T00:56:07.464Z,19.50
2018-07-22T00:58:10.600Z,19.50
2018-07-22T01:00:13.800Z,19.50
2018-07-22T01:02:16.896Z,19.50
2018-07-22T01:04:20.044Z,19.50
2018-07-22T01:06:23.159Z,19.50
2018-07-22T01:08:26.387Z,19.50
2018-07-22T01:10:29.549Z,19.50
2018-07-22T01:12:32.683Z,19.40
2018-07-22T01:14:35.876Z,19.40
2018-07-22T01:16:39.024Z,19.40
2018-07-22T04:43:37.978Z,18.80
2018-07-22T04:45:41.191Z,18.90
2018-07-22T04:47:44.401Z,18.90
2018-07-22T04:51:50.473Z,18.90
2018-07-22T04:53:53.636Z,19.00
2018-07-22T04:57:59.691Z,19.10
2018-07-22T05:00:02.856Z,19.20
2018-07-22T05:02:06.015Z,19.30
2018-07-22T05:04:09.151Z,19.50
2018-07-22T05:06:12.305Z,19.80
2018-07-22T05:08:15.452Z,20.60
2018-07-22T05:10:18.591Z,20.60
2018-07-22T05:12:21.790Z,21.10
2018-07-22T05:14:24.965Z,21.30
2018-07-22T05:16:28.123Z,21.60
2018-07-22T05:18:31.287Z,21.90
2018-07-22T05:20:34.528Z,22.30
2018-07-22T05:22:37.668Z,22.60
2018-07-22T05:24:40.835Z,22.90
2018-07-22T05:26:44.011Z,23.20
2018-07-22T05:28:47.152Z,23.50
2018-07-22T05:30:50.273Z,23.70
2018-07-22T05:32:53.391Z,24.00
2018-07-22T05:34:56.499Z,24.30
2018-07-22T05:47:14.731Z,25.80
2018-07-22T05:49:17.806Z,26.10
2018-07-22T05:51:20.895Z,26.30
2018-07-22T05:53:23.974Z,26.50
2018-07-22T05:55:27.061Z,26.70
2018-07-22T06:03:39.211Z,27.50
2018-07-22T06:05:42.312Z,27.70
2018-07-22T06:07:45.527Z,27.80
2018-07-22T06:09:48.616Z,27.90
2018-07-22T06:11:51.735Z,28.10
2018-07-22T06:13:54.811Z,28.20
2018-07-22T06:15:57.916Z,28.40
2018-07-22T06:18:01.155Z,28.40
2018-07-22T06:20:05.861Z,28.50
2018-07-22T06:22:08.955Z,28.60
2018-07-22T06:24:12.052Z,28.50
2018-07-22T06:26:15.164Z,28.70
2018-07-22T06:28:18.247Z,28.80
2018-07-22T06:30:21.431Z,29.10
2018-07-22T06:32:24.548Z,29.30
2018-07-22T06:34:27.676Z,29.40
2018-07-22T06:36:30.851Z,29.60
2018-07-22T06:38:34.038Z,29.60
2018-07-22T06:40:37.109Z,29.60
2018-07-22T06:42:40.264Z,29.50
2018-07-22T06:44:43.382Z,29.20
2018-07-22T06:50:52.244Z,29.60
2018-07-22T06:52:55.367Z,29.70
2018-07-22T06:54:58.465Z,29.70
2018-07-22T06:59:04.695Z,29.90
2018-07-22T07:01:07.767Z,29.80
2018-07-22T07:03:10.888Z,29.10
2018-07-22T07:05:14.027Z,28.10
2018-07-22T07:09:20.501Z,27.40
2018-07-22T07:11:23.583Z,27.10
2018-07-22T07:13:26.679Z,26.90
2018-07-22T07:15:29.791Z,26.60
2018-07-22T07:17:32.880Z,26.40
2018-07-22T07:19:35.994Z,26.20
2018-07-22T07:21:39.107Z,26.00
2018-07-22T07:27:48.084Z,25.30
2018-07-22T07:29:51.179Z,25.20
2018-07-22T07:31:54.276Z,25.10
2018-07-22T07:33:57.412Z,25.00
2018-07-22T07:36:00.538Z,25.10
2018-07-22T07:38:03.756Z,25.30
2018-07-22T07:40:06.924Z,25.30
2018-07-22T07:42:10.055Z,25.50
2018-07-22T07:44:13.143Z,25.60
2018-07-22T07:48:19.195Z,25.10
2018-07-22T07:50:22.296Z,25.50
2018-07-22T07:52:25.439Z,25.30
2018-07-22T07:54:28.619Z,25.30
2018-07-22T07:56:32.452Z,25.40
2018-07-22T07:58:35.570Z,25.50
2018-07-22T08:00:38.672Z,25.60
2018-07-22T08:02:41.766Z,25.60
2018-07-22T08:04:44.948Z,25.70
2018-07-22T08:06:48.047Z,25.80
2018-07-22T08:08:51.147Z,25.80
2018-07-22T08:10:54.239Z,25.50
2018-07-22T08:12:57.369Z,25.50
2018-07-22T08:17:03.441Z,25.50
2018-07-22T08:19:06.562Z,25.40
2018-07-22T08:23:12.563Z,25.50
2018-07-22T08:25:15.703Z,25.60
2018-07-22T08:27:18.800Z,25.80
2018-07-22T08:29:37.434Z,25.80
2018-07-22T08:31:40.525Z,25.80
2018-07-22T08:33:43.636Z,25.90
2018-07-22T08:37:50.549Z,25.70
2018-07-22T08:39:53.631Z,25.70
2018-07-22T08:41:57.283Z,25.80
2018-07-22T08:44:00.376Z,25.80
2018-07-22T08:46:03.468Z,25.90
2018-07-22T08:48:06.944Z,25.90
2018-07-22T08:50:10.056Z,25.80
2018-07-22T08:52:13.144Z,25.70
2018-07-22T08:54:16.244Z,25.80
2018-07-22T08:56:19.328Z,25.80
2018-07-22T08:58:22.416Z,25.80
2018-07-22T09:00:25.536Z,25.80
2018-07-22T09:02:28.672Z,25.80
2018-07-22T09:06:34.767Z,26.00
2018-07-22T09:08:37.887Z,26.00
2018-07-22T09:10:41.036Z,26.00
2018-07-22T09:12:44.164Z,26.10
2018-07-22T09:14:47.311Z,26.00
2018-07-22T09:16:50.439Z,26.00
2018-07-22T09:18:53.725Z,26.10
2018-07-22T09:20:56.865Z,26.20
2018-07-22T09:22:59.999Z,26.30
2018-07-22T09:25:03.152Z,26.40
2018-07-22T09:27:06.515Z,26.40
2018-07-22T09:29:10.243Z,26.20
2018-07-22T09:31:13.386Z,26.10
2018-07-22T09:35:19.476Z,26.20
2018-07-22T09:37:22.607Z,26.20
2018-07-22T09:39:25.757Z,26.10
2018-07-22T09:41:28.928Z,26.20
2018-07-22T09:43:32.052Z,26.30
2018-07-22T09:45:35.453Z,26.40
2018-07-22T09:47:38.607Z,26.60
2018-07-22T09:49:41.764Z,26.70
2018-07-22T09:51:44.903Z,26.80
2018-07-22T09:53:48.124Z,26.80
2018-07-22T09:55:51.236Z,27.00
2018-07-22T09:57:54.360Z,27.20
2018-07-22T09:59:57.505Z,27.20
2018-07-22T10:02:00.696Z,27.00
2018-07-22T10:04:03.856Z,27.00
2018-07-22T10:06:06.989Z,27.20
2018-07-22T10:08:10.260Z,27.30
2018-07-22T10:10:13.424Z,27.10
2018-07-22T10:16:22.512Z,27.30
2018-07-22T10:18:25.648Z,27.20
2018-07-22T10:20:28.816Z,27.20
2018-07-22T10:22:32.083Z,27.20
2018-07-22T10:28:41.159Z,27.30
2018-07-22T10:30:44.251Z,27.30
2018-07-22T10:32:47.424Z,27.30
2018-07-22T10:34:50.574Z,27.30
2018-07-22T10:36:53.716Z,27.40
2018-07-22T10:38:56.851Z,27.40
2018-07-22T10:40:59.996Z,27.50
2018-07-22T10:43:03.123Z,27.60
2018-07-22T10:45:06.268Z,27.70
2018-07-22T10:49:12.341Z,27.90
2018-07-22T10:51:15.484Z,28.10
2018-07-22T10:53:18.712Z,28.20
2018-07-22T10:55:21.852Z,28.40
2018-07-22T10:57:24.972Z,28.30
2018-07-22T10:59:28.111Z,28.30
2018-07-22T11:01:34.454Z,28.30
2018-07-22T11:03:37.646Z,28.60
2018-07-22T11:05:40.838Z,28.70
2018-07-22T11:07:43.912Z,28.90
2018-07-22T11:09:47.146Z,28.90
2018-07-22T11:11:50.291Z,29.10
2018-07-22T11:15:56.424Z,29.00
2018-07-22T11:18:00.180Z,28.90
2018-07-22T11:20:03.442Z,28.90
2018-07-22T11:22:07.709Z,28.90
2018-07-22T11:24:11.010Z,29.40
2018-07-22T11:26:14.115Z,29.90
2018-07-22T11:28:17.199Z,30.40
2018-07-22T11:32:23.255Z,30.30
2018-07-22T11:36:29.326Z,30.40
2018-07-22T11:38:32.909Z,30.40
2018-07-22T11:40:36.022Z,30.40
2018-07-22T11:42:39.125Z,30.50
2018-07-22T11:44:42.296Z,30.70
2018-07-22T11:48:48.293Z,31.00
2018-07-22T11:50:51.391Z,30.80
2018-07-22T11:52:54.528Z,30.50
2018-07-22T11:54:57.690Z,30.40
2018-07-22T11:57:00.787Z,30.40
2018-07-22T11:59:03.991Z,30.50
2018-07-22T12:01:07.155Z,30.50
2018-07-22T12:03:10.395Z,30.40
2018-07-22T12:05:13.566Z,30.50
2018-07-22T12:07:16.784Z,30.50
2018-07-22T12:09:19.944Z,30.70
2018-07-22T12:11:23.108Z,30.80
2018-07-22T12:13:26.272Z,31.00
2018-07-22T12:15:29.421Z,31.30
2018-07-22T12:17:32.547Z,31.50
2018-07-22T12:19:36.374Z,31.60
2018-07-22T12:23:42.528Z,31.90
2018-07-22T12:27:48.580Z,31.60
2018-07-22T12:29:51.946Z,31.50
2018-07-22T12:31:55.094Z,31.40
2018-07-22T12:33:58.431Z,31.10
2018-07-22T12:36:01.608Z,31.30
2018-07-22T12:38:04.779Z,31.60
2018-07-22T12:40:07.915Z,31.80
2018-07-22T12:42:11.068Z,31.90
2018-07-22T12:44:14.230Z,32.00
2018-07-22T12:46:17.377Z,32.10
2018-07-22T12:48:20.517Z,32.00
2018-07-22T12:52:26.687Z,31.40
2018-07-22T12:54:29.884Z,31.40
2018-07-22T12:56:33.046Z,31.40
2018-07-22T12:58:36.187Z,31.70
2018-07-22T13:00:39.372Z,31.80
2018-07-22T13:02:42.511Z,31.80
2018-07-22T13:04:52.070Z,31.60
2018-07-22T13:06:55.212Z,31.60
2018-07-22T13:08:58.311Z,31.50
2018-07-22T13:11:01.425Z,31.70
2018-07-22T13:13:04.554Z,31.80
2018-07-22T13:15:08.311Z,31.70
2018-07-22T13:17:11.829Z,31.70
2018-07-22T13:19:15.108Z,31.80
2018-07-22T13:23:21.080Z,31.60
2018-07-22T13:25:24.152Z,31.10
2018-07-22T13:27:27.327Z,31.00
2018-07-22T13:29:30.392Z,31.10
2018-07-22T13:35:39.369Z,30.80
2018-07-22T13:39:45.364Z,30.90
2018-07-22T13:41:48.459Z,30.90
2018-07-22T13:45:54.455Z,31.50
2018-07-22T13:50:00.472Z,31.40
2018-07-22T13:52:03.568Z,31.40
2018-07-22T13:54:06.690Z,31.60
2018-07-22T13:56:09.763Z,31.90
2018-07-22T13:58:12.871Z,32.30
2018-07-22T14:00:16.105Z,32.40
2018-07-22T14:02:19.175Z,32.30
2018-07-22T14:04:22.263Z,32.10
2018-07-22T14:12:34.184Z,31.00
2018-07-22T14:14:37.271Z,30.70
2018-07-22T14:16:40.364Z,30.60
2018-07-22T14:18:43.448Z,30.70
2018-07-22T14:20:46.531Z,30.80
2018-07-22T14:22:49.615Z,30.80
2018-07-22T14:24:52.696Z,30.90
2018-07-22T14:26:55.788Z,31.00
2018-07-22T14:28:58.872Z,31.10
2018-07-22T14:31:01.957Z,31.10
2018-07-22T14:33:05.065Z,31.20
2018-07-22T14:37:11.039Z,30.60
2018-07-22T14:39:14.131Z,30.50
2018-07-22T14:41:17.226Z,30.50
2018-07-22T14:43:20.293Z,30.40
2018-07-22T14:45:23.380Z,30.30
2018-07-22T14:47:26.523Z,30.50
2018-07-22T14:49:29.642Z,30.50
2018-07-22T14:53:35.665Z,30.40
2018-07-22T14:55:38.711Z,30.50
2018-07-22T14:57:41.832Z,30.70
2018-07-22T15:01:47.818Z,30.90
2018-07-22T15:03:50.971Z,30.90
2018-07-22T15:05:54.113Z,30.90
2018-07-22T15:07:57.271Z,30.80
2018-07-22T15:10:00.419Z,30.90
2018-07-22T15:12:03.655Z,30.90
2018-07-22T15:14:07.393Z,31.10
2018-07-22T15:16:10.532Z,31.20
2018-07-22T15:18:13.687Z,31.40
2018-07-22T15:20:17.735Z,31.30
2018-07-22T15:22:20.963Z,31.40
2018-07-22T15:24:24.136Z,31.50
2018-07-22T15:26:27.306Z,31.50
2018-07-22T15:28:30.560Z,31.50
2018-07-22T15:30:33.701Z,31.50
2018-07-22T15:32:36.828Z,31.60
2018-07-22T15:34:40.216Z,31.60
2018-07-22T15:36:43.358Z,31.60
2018-07-22T15:38:46.487Z,31.60
2018-07-22T15:40:49.776Z,31.60
2018-07-22T15:42:52.987Z,31.50
2018-07-22T15:44:56.133Z,31.40
2018-07-22T15:46:59.256Z,31.30
2018-07-22T15:49:02.419Z,31.10
2018-07-22T15:51:05.855Z,31.10
2018-07-22T15:53:09.028Z,31.10
2018-07-22T15:55:12.194Z,31.10
2018-07-22T15:57:15.359Z,31.20
2018-07-22T15:59:18.504Z,31.10
2018-07-22T16:01:21.640Z,31.10
2018-07-22T16:03:24.775Z,31.10
2018-07-22T16:07:30.839Z,31.30
2018-07-22T16:11:36.919Z,31.30
2018-07-22T16:15:42.944Z,31.30
2018-07-22T16:17:46.040Z,31.30
2018-07-22T16:19:49.959Z,31.00
2018-07-22T16:21:53.083Z,31.10
2018-07-22T16:23:56.184Z,31.20
2018-07-22T16:25:59.302Z,31.20
2018-07-22T16:28:02.394Z,31.10
2018-07-22T16:30:06.303Z,31.00
2018-07-22T16:34:12.285Z,30.80
2018-07-22T16:38:18.269Z,30.30
2018-07-22T16:40:21.352Z,30.30
2018-07-22T16:42:24.439Z,30.50
2018-07-22T16:44:27.544Z,30.50
2018-07-22T16:46:30.627Z,30.60
2018-07-22T16:48:33.724Z,30.50
2018-07-22T16:50:36.799Z,30.60
2018-07-22T16:52:39.888Z,30.70
2018-07-22T16:54:42.971Z,30.60
2018-07-22T16:56:46.263Z,30.50
2018-07-22T16:58:49.367Z,30.60
2018-07-22T17:00:52.468Z,30.60
2018-07-22T17:02:55.639Z,30.70
2018-07-22T17:04:58.912Z,30.70
2018-07-22T17:07:02.055Z,30.70
2018-07-22T17:09:07.840Z,30.60
2018-07-22T17:11:12.007Z,30.40
2018-07-22T17:13:15.148Z,30.30
2018-07-22T17:17:21.835Z,29.90
2018-07-22T17:19:24.980Z,29.70
2018-07-22T17:23:32.050Z,29.50
2018-07-22T17:25:35.227Z,29.50
2018-07-22T17:27:38.351Z,29.40
2018-07-22T17:29:41.504Z,29.10
2018-07-22T17:31:44.656Z,29.00
2018-07-22T17:35:50.733Z,28.80
2018-07-22T17:39:59.952Z,28.60
2018-07-22T17:42:03.092Z,28.40
2018-07-22T17:44:06.635Z,28.40
2018-07-22T17:46:09.763Z,28.30
2018-07-22T17:48:12.892Z,28.30
2018-07-22T17:50:16.049Z,28.40
2018-07-22T17:52:19.188Z,28.50
2018-07-22T17:54:22.345Z,28.60
2018-07-22T17:56:25.490Z,28.70
2018-07-22T17:58:28.623Z,29.20
2018-07-22T18:00:31.777Z,29.60
2018-07-22T18:02:34.916Z,30.20
2018-07-22T18:04:38.050Z,30.30
2018-07-22T18:06:41.167Z,30.60
2018-07-22T18:08:45.487Z,30.70
2018-07-22T18:10:49.500Z,30.60
2018-07-22T18:12:52.734Z,30.40
2018-07-22T18:14:55.900Z,30.80
2018-07-22T18:16:59.039Z,31.40
2018-07-22T18:19:02.188Z,31.70
2018-07-22T18:21:06.311Z,32.10
2018-07-22T18:23:09.483Z,32.40
2018-07-22T18:25:12.680Z,32.50
2018-07-22T18:27:15.812Z,32.50
2018-07-22T18:29:18.948Z,32.40
2018-07-22T18:31:22.100Z,32.50
2018-07-22T18:33:25.223Z,32.50
2018-07-22T18:35:29.007Z,32.60
2018-07-22T18:37:32.143Z,32.60
2018-07-22T18:39:35.284Z,32.60
2018-07-22T18:41:38.411Z,32.50
2018-07-22T18:43:41.569Z,32.20
2018-07-22T18:45:44.700Z,31.50
2018-07-22T18:47:47.832Z,30.90
2018-07-22T18:49:51.014Z,30.50
2018-07-22T18:51:54.228Z,30.20
2018-07-22T18:53:57.379Z,30.30
2018-07-22T18:56:00.511Z,29.80
2018-07-22T18:58:03.637Z,29.70
2018-07-22T19:02:09.961Z,28.80
2018-07-22T19:04:13.103Z,28.70
2018-07-22T19:06:17.288Z,28.50
2018-07-22T19:08:20.507Z,28.30
2018-07-22T19:10:23.663Z,28.10
2018-07-22T19:12:26.787Z,28.00
2018-07-22T19:14:29.939Z,27.90
2018-07-22T19:16:33.088Z,27.80
2018-07-22T19:18:36.304Z,27.70
2018-07-22T19:20:39.435Z,27.60
2018-07-22T19:22:42.571Z,27.60
2018-07-22T19:39:09.511Z,26.90
2018-07-22T19:41:12.664Z,26.90
2018-07-22T19:43:15.812Z,26.70
2018-07-22T19:45:18.972Z,26.70
2018-07-22T19:47:22.107Z,26.60
2018-07-22T19:49:25.239Z,26.50
2018-07-22T19:51:28.382Z,26.50
2018-07-22T19:53:31.538Z,26.40
2018-07-22T20:28:24.928Z,26.00
2018-07-22T20:30:28.768Z,25.90
2018-07-22T20:32:31.927Z,25.80
2018-07-22T20:34:35.062Z,25.80
2018-07-22T20:36:38.271Z,25.80
2018-07-22T20:38:41.400Z,25.80
2018-07-22T20:40:44.635Z,25.70
2018-07-22T21:20:48.559Z,24.90
2018-07-22T21:22:51.700Z,24.80
2018-07-22T21:24:54.837Z,24.60
2018-07-22T21:26:57.967Z,24.50
2018-07-22T21:29:01.104Z,24.40
2018-07-22T21:31:04.248Z,24.30
2018-07-22T22:16:09.924Z,23.10
2018-07-22T22:18:13.031Z,23.10
2018-07-22T22:20:16.310Z,23.00
2018-07-22T22:24:22.275Z,22.90
2018-07-22T22:26:25.372Z,22.90
2018-07-22T22:28:28.469Z,22.80
2018-07-22T22:30:31.559Z,22.80
2018-07-22T22:32:34.682Z,22.70
2018-07-22T22:34:37.799Z,22.70
2018-07-22T22:36:40.892Z,22.70
2018-07-22T22:38:44.023Z,22.60
2018-07-22T22:40:47.101Z,22.60
2018-07-22T22:42:50.207Z,22.60
2018-07-22T22:44:53.295Z,22.60
2018-07-22T22:46:56.401Z,22.50
2018-07-22T22:48:59.495Z,22.50
2018-07-22T22:51:03.671Z,22.40
2018-07-22T22:53:06.777Z,22.40
2018-07-22T22:55:09.880Z,22.40
2018-07-22T22:57:12.976Z,22.40
2018-07-22T22:59:18.871Z,22.30
2018-07-22T23:01:21.955Z,22.30
2018-07-22T23:03:25.051Z,22.20
2018-07-22T23:05:28.131Z,22.20
2018-07-22T23:07:31.219Z,22.10
2018-07-22T23:11:37.673Z,22.00
2018-07-22T23:13:40.767Z,21.90
2018-07-22T23:15:43.839Z,21.90
2018-07-22T23:17:46.952Z,21.90
2018-07-22T23:19:50.027Z,21.90
2018-07-22T23:21:53.128Z,21.90
2018-07-22T23:23:56.235Z,21.90
2018-07-22T23:25:59.321Z,21.80
2018-07-22T23:28:02.420Z,21.80
2018-07-22T23:30:05.579Z,21.80
2018-07-22T23:32:08.691Z,21.80
2018-07-22T23:34:11.779Z,21.80
2018-07-22T23:36:14.981Z,21.70
2018-07-22T23:38:18.098Z,21.60
2018-07-22T23:40:21.188Z,21.60
2018-07-22T23:42:24.272Z,21.60
2018-07-22T23:44:27.387Z,21.60
2018-07-22T23:46:30.492Z,21.60
2018-07-22T23:48:33.579Z,21.60
2018-07-22T23:50:36.678Z,21.60
2018-07-22T23:52:39.767Z,21.60
2018-07-22T23:54:42.861Z,21.50
2018-07-22T23:56:45.951Z,21.50
2018-07-22T23:58:49.081Z,21.50
